createdAt,value
2018-05-24T00:00:01.076Z,3.3
2018-05-24T00:03:00.997Z,3.2
2018-05-24T00:06:01.891Z,3.1
2018-05-24T00:09:01.028Z,3
2018-05-24T00:12:01.185Z,3
2018-05-24T00:15:01.119Z,3.1
2018-05-24T00:18:01.048Z,3
2018-05-24T00:21:00.946Z,3.1
2018-05-24T00:24:01.066Z,3
2018-05-24T00:27:01.092Z,2.9
2018-05-24T00:30:00.924Z,3.5
2018-05-24T00:33:01.061Z,3.1
2018-05-24T00:36:01.299Z,3.1
2018-05-24T00:39:01.108Z,3
2018-05-24T00:42:01.141Z,2.9
2018-05-24T00:45:01.185Z,3.1
2018-05-24T00:48:01.195Z,3.1
2018-05-24T00:51:01.048Z,3.1
2018-05-24T00:54:00.524Z,3.2
2018-05-24T00:57:01.098Z,3.2
2018-05-24T01:00:00.586Z,3.1
2018-05-24T01:03:01.078Z,3
2018-05-24T01:06:00.692Z,2.9
2018-05-24T01:09:00.289Z,2.9
2018-05-24T01:12:00.665Z,2.9
2018-05-24T01:15:00.574Z,3
2018-05-24T01:18:00.313Z,3
2018-05-24T01:21:01.069Z,3
2018-05-24T01:24:01.093Z,3
2018-05-24T01:27:01.051Z,3.2
2018-05-24T01:30:01.173Z,3
2018-05-24T01:33:00.779Z,3.1
2018-05-24T01:36:01.149Z,3.1
2018-05-24T01:39:01.053Z,2.9
2018-05-24T01:42:00.754Z,2.9
2018-05-24T01:45:00.312Z,3.1
2018-05-24T01:48:01.013Z,3.2
2018-05-24T01:51:01.177Z,3
2018-05-24T01:54:01.590Z,3.1
2018-05-24T01:57:00.314Z,3
2018-05-24T02:00:00.372Z,3
2018-05-24T02:03:00.404Z,3
2018-05-24T02:06:00.253Z,2.9
2018-05-24T02:09:00.456Z,2.9
2018-05-24T02:12:00.541Z,3
2018-05-24T02:15:00.480Z,3
2018-05-24T02:18:00.323Z,3
2018-05-24T02:21:00.308Z,3
2018-05-24T02:24:00.268Z,3
2018-05-24T02:27:00.509Z,3.1
2018-05-24T02:30:00.490Z,3.1
2018-05-24T02:33:00.239Z,3.1
2018-05-24T02:36:03.787Z,3.1
2018-05-24T02:39:00.313Z,3
2018-05-24T02:42:00.279Z,3
2018-05-24T02:45:00.484Z,2.9
2018-05-24T02:48:00.489Z,2.9
2018-05-24T02:51:00.237Z,2.9
2018-05-24T02:54:00.910Z,2.9
2018-05-24T02:57:00.450Z,3.1
2018-05-24T03:00:00.429Z,3.1
2018-05-24T03:03:00.494Z,3
2018-05-24T03:06:00.252Z,3.1
2018-05-24T03:09:00.227Z,3.1
2018-05-24T03:12:00.434Z,3
2018-05-24T03:15:00.294Z,3
2018-05-24T03:18:00.244Z,3.1
2018-05-24T03:21:00.395Z,3.1
2018-05-24T03:24:00.371Z,3
2018-05-24T03:27:00.217Z,3
2018-05-24T03:30:00.531Z,2.9
2018-05-24T03:33:00.260Z,2.9
2018-05-24T03:36:00.249Z,2.9
2018-05-24T03:39:00.317Z,3
2018-05-24T03:42:00.313Z,2.9
2018-05-24T03:45:00.230Z,2.9
2018-05-24T03:48:00.475Z,2.9
2018-05-24T03:51:00.609Z,2.9
2018-05-24T03:54:20.714Z,2.9
2018-05-24T03:57:00.419Z,2.9
2018-05-24T04:00:00.321Z,2.9
2018-05-24T04:03:00.341Z,2.9
2018-05-24T04:06:00.748Z,2.9
2018-05-24T04:09:00.157Z,2.9
2018-05-24T04:12:01.163Z,3
2018-05-24T04:15:00.385Z,2.9
2018-05-24T04:18:00.428Z,2.9
2018-05-24T04:21:00.361Z,2.9
2018-05-24T04:24:00.402Z,2.9
2018-05-24T04:27:01.092Z,2.8
2018-05-24T04:30:00.383Z,2.8
2018-05-24T04:33:00.921Z,2.7
2018-05-24T04:36:00.612Z,2.8
2018-05-24T04:39:00.467Z,2.8
2018-05-24T04:42:00.420Z,2.9
2018-05-24T04:45:00.279Z,3
2018-05-24T04:48:00.421Z,2.9
2018-05-24T04:51:00.329Z,2.9
2018-05-24T04:54:00.639Z,2.9
2018-05-24T04:57:00.209Z,2.8
2018-05-24T05:00:00.377Z,2.8
2018-05-24T05:03:00.370Z,2.8
2018-05-24T05:06:00.599Z,2.8
2018-05-24T05:09:00.319Z,2.8
2018-05-24T05:12:00.539Z,2.8
2018-05-24T05:15:00.307Z,2.8
2018-05-24T05:18:00.234Z,2.8
2018-05-24T05:21:00.345Z,2.8
2018-05-24T05:24:00.248Z,2.9
2018-05-24T05:27:00.560Z,2.8
2018-05-24T05:30:00.511Z,2.8
2018-05-24T05:33:00.221Z,2.7
2018-05-24T05:36:00.300Z,2.8
2018-05-24T05:39:00.304Z,2.7
2018-05-24T05:42:00.252Z,2.8
2018-05-24T05:45:00.238Z,2.8
2018-05-24T05:48:00.374Z,2.7
2018-05-24T05:51:00.193Z,2.8
2018-05-24T05:54:00.447Z,2.7
2018-05-24T05:57:00.254Z,2.8
2018-05-24T06:00:00.175Z,2.7
2018-05-24T06:03:00.332Z,2.9
2018-05-24T06:06:00.278Z,2.8
2018-05-24T06:09:00.220Z,2.7
2018-05-24T06:12:00.480Z,2.8
2018-05-24T06:15:00.309Z,2.7
2018-05-24T06:18:00.300Z,2.8
2018-05-24T06:21:00.363Z,2.8
2018-05-24T06:24:00.332Z,2.9
2018-05-24T06:27:00.186Z,2.8
2018-05-24T06:30:00.344Z,2.7
2018-05-24T06:33:00.445Z,2.8
2018-05-24T06:36:00.193Z,2.8
2018-05-24T06:39:00.492Z,2.8
2018-05-24T06:42:00.429Z,2.8
2018-05-24T06:45:00.263Z,2.8
2018-05-24T06:48:00.292Z,2.7
2018-05-24T06:51:00.410Z,2.6
2018-05-24T06:54:00.461Z,2.6
2018-05-24T06:57:00.392Z,2.6
2018-05-24T07:00:01.722Z,2.5
2018-05-24T07:03:00.326Z,2.7
2018-05-24T07:06:01.962Z,2.7
2018-05-24T07:09:00.289Z,2.6
2018-05-24T07:12:00.184Z,2.8
2018-05-24T07:15:00.378Z,2.8
2018-05-24T07:18:00.195Z,2.7
2018-05-24T07:21:00.169Z,2.7
2018-05-24T07:24:00.393Z,2.7
2018-05-24T07:27:00.383Z,2.7
2018-05-24T07:30:00.139Z,2.6
2018-05-24T07:33:00.382Z,2.6
2018-05-24T07:36:00.291Z,2.6
2018-05-24T07:39:20.626Z,2.6
2018-05-24T07:42:00.287Z,2.7
2018-05-24T07:45:01.174Z,2.7
2018-05-24T07:48:00.176Z,2.7
2018-05-24T07:51:00.298Z,2.7
2018-05-24T07:54:03.312Z,2.6
2018-05-24T07:57:00.344Z,2.6
2018-05-24T08:00:00.267Z,2.6
2018-05-24T08:03:00.213Z,2.6
2018-05-24T08:06:00.187Z,2.6
2018-05-24T08:09:00.216Z,3
2018-05-24T08:12:00.338Z,2.9
2018-05-24T08:15:00.404Z,3.3
2018-05-24T08:18:00.245Z,3.6
2018-05-24T08:21:00.187Z,4.9
2018-05-24T08:24:00.329Z,4.7
2018-05-24T08:27:00.204Z,4.9
2018-05-24T08:30:00.296Z,4.6
2018-05-24T08:33:00.350Z,4.7
2018-05-24T08:36:00.271Z,4.4
2018-05-24T08:39:00.238Z,4.2
2018-05-24T08:42:00.327Z,4.1
2018-05-24T08:45:00.416Z,4
2018-05-24T08:48:00.228Z,4.2
2018-05-24T08:51:00.242Z,4.1
2018-05-24T08:54:00.487Z,3.9
2018-05-24T08:57:00.225Z,4.4
2018-05-24T09:00:00.234Z,4.4
2018-05-24T09:03:00.326Z,4.3
2018-05-24T09:06:00.458Z,4.1
2018-05-24T09:09:00.798Z,4
2018-05-24T09:12:00.325Z,4.6
2018-05-24T09:15:00.357Z,5
2018-05-24T09:18:00.571Z,4.4
2018-05-24T09:21:00.324Z,4
2018-05-24T09:24:00.226Z,4.1
2018-05-24T09:27:00.313Z,3.9
2018-05-24T09:30:00.403Z,3.9
2018-05-24T09:33:00.258Z,3.8
2018-05-24T09:36:00.430Z,3.8
2018-05-24T09:39:00.399Z,3.8
2018-05-24T09:42:00.234Z,3.7
2018-05-24T09:45:00.260Z,3.7
2018-05-24T09:48:00.357Z,3.7
2018-05-24T09:51:00.315Z,3.9
2018-05-24T09:54:00.632Z,4
2018-05-24T09:57:00.262Z,3.7
2018-05-24T10:00:00.816Z,3.7
2018-05-24T10:03:00.312Z,3.7
2018-05-24T10:06:00.196Z,3.6
2018-05-24T10:09:00.121Z,4.4
2018-05-24T10:12:00.093Z,3.9
2018-05-24T10:15:00.107Z,3.7
2018-05-24T10:18:00.449Z,3.9
2018-05-24T10:21:00.187Z,3.8
2018-05-24T10:24:00.329Z,3.6
2018-05-24T10:27:00.185Z,3.6
2018-05-24T10:30:00.193Z,3.6
2018-05-24T10:33:00.127Z,3.5
2018-05-24T10:36:00.199Z,3.5
2018-05-24T10:39:00.240Z,3.6
2018-05-24T10:42:00.114Z,3.6
2018-05-24T10:45:00.365Z,3.6
2018-05-24T10:48:00.234Z,3.7
2018-05-24T10:51:00.845Z,3.6
2018-05-24T10:54:00.808Z,3.4
2018-05-24T10:57:00.177Z,3.5
2018-05-24T11:00:00.171Z,3.5
2018-05-24T11:03:01.241Z,3.5
2018-05-24T11:06:00.481Z,3.5
2018-05-24T11:09:00.247Z,3.5
2018-05-24T11:12:00.189Z,3.3
2018-05-24T11:15:00.368Z,3.3
2018-05-24T11:18:00.081Z,3.3
2018-05-24T11:21:00.427Z,3.3
2018-05-24T11:24:00.158Z,3.3
2018-05-24T11:27:00.241Z,3.4
2018-05-24T11:30:00.369Z,3.5
2018-05-24T11:33:00.534Z,3.5
2018-05-24T11:36:00.325Z,3.4
2018-05-24T11:39:00.186Z,3.4
2018-05-24T11:42:00.377Z,3.5
2018-05-24T11:45:00.171Z,3.3
2018-05-24T11:48:00.138Z,3.3
2018-05-24T11:51:00.118Z,3.3
2018-05-24T11:54:00.186Z,3.3
2018-05-24T11:57:00.191Z,3.3
2018-05-24T12:00:00.219Z,3.2
2018-05-24T12:03:00.169Z,3.3
2018-05-24T12:06:00.313Z,3.3
2018-05-24T12:09:00.239Z,3.3
2018-05-24T12:12:00.116Z,3.5
2018-05-24T12:15:00.330Z,3.3
2018-05-24T12:18:00.206Z,3.2
2018-05-24T12:21:00.136Z,3.2
2018-05-24T12:24:00.090Z,3.1
2018-05-24T12:27:00.266Z,3.1
2018-05-24T12:30:00.216Z,3.1
2018-05-24T12:33:00.298Z,3.1
2018-05-24T12:36:00.157Z,3.1
2018-05-24T12:39:00.290Z,3.1
2018-05-24T12:42:00.173Z,3.1
2018-05-24T12:45:00.246Z,3.1
2018-05-24T12:48:00.168Z,3.1
2018-05-24T12:51:00.175Z,3.1
2018-05-24T12:54:00.393Z,3.1
2018-05-24T12:57:00.175Z,3
2018-05-24T13:00:00.461Z,3
2018-05-24T13:03:00.242Z,3
2018-05-24T13:06:10.342Z,3
2018-05-24T13:09:00.407Z,3
2018-05-24T13:12:00.082Z,3
2018-05-24T13:15:00.126Z,3
2018-05-24T13:18:00.245Z,2.9
2018-05-24T13:21:00.265Z,2.9
2018-05-24T13:24:00.418Z,2.9
2018-05-24T13:27:00.241Z,2.9
2018-05-24T13:30:00.097Z,2.9
2018-05-24T13:33:00.966Z,2.9
2018-05-24T13:36:00.113Z,2.9
2018-05-24T13:39:00.347Z,2.9
2018-05-24T13:42:00.204Z,2.9
2018-05-24T13:45:00.224Z,2.9
2018-05-24T13:48:00.311Z,2.9
2018-05-24T13:51:00.067Z,2.9
2018-05-24T13:54:00.104Z,2.9
2018-05-24T13:57:00.084Z,2.9
2018-05-24T14:00:00.026Z,2.9
2018-05-24T14:03:00.130Z,3
2018-05-24T14:06:00.074Z,2.9
2018-05-24T14:09:00.017Z,2.8
2018-05-24T14:12:00.088Z,2.8
2018-05-24T14:15:00.152Z,2.8
2018-05-24T14:18:00.225Z,2.9
2018-05-24T14:21:00.274Z,2.9
2018-05-24T14:24:00.053Z,2.9
2018-05-24T14:27:00.047Z,2.9
2018-05-24T14:30:00.343Z,2.8
2018-05-24T14:33:00.175Z,2.9
2018-05-24T14:36:00.052Z,2.9
2018-05-24T14:39:00.493Z,2.8
2018-05-24T14:42:00.244Z,2.9
2018-05-24T14:45:00.633Z,2.8
2018-05-24T14:48:00.138Z,2.8
2018-05-24T14:51:00.179Z,2.8
2018-05-24T14:54:00.126Z,2.8
2018-05-24T14:57:00.433Z,2.8
2018-05-24T15:00:00.101Z,2.8
2018-05-24T15:03:00.078Z,2.8
2018-05-24T15:06:00.152Z,2.8
2018-05-24T15:09:00.160Z,2.8
2018-05-24T15:12:00.189Z,2.7
2018-05-24T15:15:00.300Z,2.7
2018-05-24T15:18:00.163Z,2.7
2018-05-24T15:21:00.284Z,2.8
2018-05-24T15:24:00.255Z,2.8
2018-05-24T15:27:00.307Z,2.9
2018-05-24T15:30:00.051Z,2.8
2018-05-24T15:33:00.248Z,2.9
2018-05-24T15:36:00.089Z,2.8
2018-05-24T15:39:00.119Z,2.8
2018-05-24T15:42:00.356Z,2.7
2018-05-24T15:45:00.094Z,2.7
2018-05-24T15:47:59.984Z,2.7
2018-05-24T15:51:00.229Z,2.7
2018-05-24T15:54:00.158Z,2.7
2018-05-24T15:57:00.141Z,2.7
2018-05-24T16:00:00.273Z,2.8
2018-05-24T16:03:00.048Z,2.8
2018-05-24T16:05:59.913Z,2.8
2018-05-24T16:09:00.157Z,2.8
2018-05-24T16:12:00.123Z,2.7
2018-05-24T16:15:00.127Z,2.7
2018-05-24T16:18:00.095Z,2.7
2018-05-24T16:21:00.172Z,2.7
2018-05-24T16:24:00.031Z,2.6
2018-05-24T16:27:00.104Z,2.6
2018-05-24T16:30:00.152Z,2.6
2018-05-24T16:33:00.075Z,2.7
2018-05-24T16:36:00.301Z,2.7
2018-05-24T16:39:00.162Z,2.7
2018-05-24T16:42:00.006Z,2.7
2018-05-24T16:45:00.134Z,2.6
2018-05-24T16:48:00.243Z,2.7
2018-05-24T16:51:00.120Z,2.7
2018-05-24T16:54:00.719Z,2.7
2018-05-24T16:57:00.139Z,2.6
2018-05-24T16:59:59.995Z,2.6
2018-05-24T17:03:00.292Z,2.5
2018-05-24T17:06:00.145Z,2.5
2018-05-24T17:09:00.014Z,2.6
2018-05-24T17:12:00.314Z,2.6
2018-05-24T17:15:00.259Z,2.6
2018-05-24T17:18:10.040Z,2.6
2018-05-24T17:21:00.301Z,2.6
2018-05-24T17:24:00.007Z,2.6
2018-05-24T17:27:00.219Z,2.6
2018-05-24T17:30:10.037Z,2.6
2018-05-24T17:33:00.102Z,2.6
2018-05-24T17:36:00.097Z,2.6
2018-05-24T17:39:00.086Z,2.5
2018-05-24T17:42:00.033Z,2.6
2018-05-24T17:45:00.150Z,2.6
2018-05-24T17:48:00.457Z,2.6
2018-05-24T17:51:00.264Z,2.5
2018-05-24T17:54:00.024Z,2.5
2018-05-24T17:57:00.045Z,2.5
2018-05-24T17:59:59.981Z,2.5
2018-05-24T18:03:00.192Z,2.6
2018-05-24T18:06:00.235Z,2.4
2018-05-24T18:09:00.227Z,2.4
2018-05-24T18:12:00.109Z,2.5
2018-05-24T18:15:00.078Z,2.5
2018-05-24T18:18:00.249Z,2.5
2018-05-24T18:21:00.229Z,2.5
2018-05-24T18:24:00.126Z,3.5
2018-05-24T18:26:59.989Z,3.4
2018-05-24T18:30:00.281Z,3.8
2018-05-24T18:33:00.266Z,3.6
2018-05-24T18:36:00.696Z,4.1
2018-05-24T18:39:00.160Z,3.8
2018-05-24T18:42:00.138Z,6.8
2018-05-24T18:45:00.015Z,6.1
2018-05-24T18:48:00.173Z,5
2018-05-24T18:50:59.994Z,4.3
2018-05-24T18:54:00.009Z,3.7
2018-05-24T18:56:59.987Z,5.3
2018-05-24T19:00:00.075Z,4.8
2018-05-24T19:03:00.101Z,4
2018-05-24T19:06:00.109Z,4.7
2018-05-24T19:09:00.185Z,4.2
2018-05-24T19:12:00.121Z,3.7
2018-05-24T19:15:00.101Z,4.8
2018-05-24T19:18:00.098Z,4.2
2018-05-24T19:21:00.073Z,3.5
2018-05-24T19:24:00.069Z,6.2
2018-05-24T19:27:00.175Z,4.6
2018-05-24T19:30:00.064Z,4
2018-05-24T19:33:00.038Z,3.6
2018-05-24T19:36:00.273Z,3.8
2018-05-24T19:39:00.082Z,3.3
2018-05-24T19:42:00.004Z,3.5
2018-05-24T19:45:00.155Z,5
2018-05-24T19:48:00.044Z,5
2018-05-24T19:51:00.307Z,6.7
2018-05-24T19:54:00.192Z,6
2018-05-24T19:57:21.243Z,7.2
2018-05-24T20:00:00.162Z,6.2
2018-05-24T20:03:00.672Z,4.7
2018-05-24T20:06:00.023Z,4
2018-05-24T20:09:00.316Z,4.6
2018-05-24T20:12:00.097Z,4.5
2018-05-24T20:15:00.124Z,4
2018-05-24T20:18:00.216Z,3.8
2018-05-24T20:20:59.975Z,4.2
2018-05-24T20:24:00.123Z,3.8
2018-05-24T20:27:00.164Z,4.1
2018-05-24T20:30:00.882Z,3.8
2018-05-24T20:33:00.204Z,3.5
2018-05-24T20:36:00.020Z,4.3
2018-05-24T20:39:00.720Z,4
2018-05-24T20:42:00.150Z,3.9
2018-05-24T20:44:59.937Z,4.8
2018-05-24T20:48:00.095Z,3.9
2018-05-24T20:51:00.218Z,4.3
2018-05-24T20:54:00.004Z,3.6
2018-05-24T20:57:00.108Z,3.4
2018-05-24T21:00:00.312Z,3.1
2018-05-24T21:03:00.225Z,3.3
2018-05-24T21:05:59.985Z,3.6
2018-05-24T21:09:00.053Z,3.2
2018-05-24T21:12:00.010Z,3.3
2018-05-24T21:15:00.130Z,3.1
2018-05-24T21:18:01.975Z,3
2018-05-24T21:21:00.015Z,3
2018-05-24T21:24:00.050Z,3.2
2018-05-24T21:26:59.982Z,3.4
2018-05-24T21:30:00.130Z,3.4
2018-05-24T21:33:00.014Z,4.5
2018-05-24T21:35:59.921Z,3.7
2018-05-24T21:39:00.088Z,3.6
2018-05-24T21:42:00.041Z,3.5
2018-05-24T21:45:00.392Z,3.5
2018-05-24T21:47:59.983Z,3.2
2018-05-24T21:51:00.163Z,2.8
2018-05-24T21:54:00.139Z,3
2018-05-24T21:57:00.029Z,3
2018-05-24T22:00:00.201Z,2.8
2018-05-24T22:02:59.938Z,2.7
2018-05-24T22:05:59.926Z,2.6
2018-05-24T22:08:59.916Z,2.6
2018-05-24T22:12:00.171Z,2.7
2018-05-24T22:15:00.076Z,2.6
2018-05-24T22:18:00.187Z,2.6
2018-05-24T22:20:59.986Z,2.7
2018-05-24T22:24:00.264Z,2.6
2018-05-24T22:26:59.991Z,2.7
2018-05-24T22:30:00.203Z,3.6
2018-05-24T22:33:00.075Z,3.1
2018-05-24T22:36:00.153Z,3.4
2018-05-24T22:38:59.889Z,3
2018-05-24T22:42:00.011Z,2.8
2018-05-24T22:45:00.105Z,2.7
2018-05-24T22:48:00.093Z,2.7
2018-05-24T22:51:00.139Z,2.7
2018-05-24T22:53:59.984Z,2.6
2018-05-24T22:57:00.158Z,3.6
2018-05-24T23:00:20.579Z,3
2018-05-24T23:02:59.951Z,2.8
2018-05-24T23:06:00.138Z,2.7
2018-05-24T23:09:00.093Z,2.7
2018-05-24T23:11:59.929Z,2.7
2018-05-24T23:14:59.861Z,2.7
2018-05-24T23:17:59.976Z,2.6
2018-05-24T23:21:00.117Z,2.6
2018-05-24T23:23:59.963Z,2.5
2018-05-24T23:27:00.076Z,2.5
2018-05-24T23:30:00.138Z,2.5
2018-05-24T23:32:59.947Z,2.5
2018-05-24T23:36:00.127Z,2.6
2018-05-24T23:38:59.941Z,2.7
2018-05-24T23:41:59.964Z,2.6
2018-05-24T23:45:00.288Z,2.6
2018-05-24T23:48:00.059Z,2.7
2018-05-24T23:51:00.092Z,2.6
2018-05-24T23:54:00.059Z,2.6
2018-05-24T23:56:59.928Z,2.6
2018-05-24T23:59:59.975Z,2.5
